sensor_id;sensor_type;location;lat;lon;timestamp;pressure;altitude;pressure_sealevel;temperature;humidity
72414;BME280;60995;52.154;4.498;2022-07-15T00:01:34;102309.81;;;16.25;62.81
72414;BME280;60995;52.154;4.498;2022-07-15T00:03:51;102307.69;;;16.29;62.79
72414;BME280;60995;52.154;4.498;2022-07-15T00:06:07;102300.88;;;16.23;63.27
72414;BME280;60995;52.154;4.498;2022-07-15T00:08:23;102307.47;;;16.11;63.83
72414;BME280;60995;52.154;4.498;2022-07-15T00:10:39;102309.47;;;16.09;63.65
72414;BME280;60995;52.154;4.498;2022-07-15T00:12:58;102306.03;;;16.16;63.55
72414;BME280;60995;52.154;4.498;2022-07-15T00:15:17;102303.56;;;16.13;63.62
72414;BME280;60995;52.154;4.498;2022-07-15T00:17:35;102313.38;;;16.16;62.92
72414;BME280;60995;52.154;4.498;2022-07-15T00:19:52;102308.38;;;16.21;62.89
72414;BME280;60995;52.154;4.498;2022-07-15T00:22:09;102300.69;;;16.15;62.99
72414;BME280;60995;52.154;4.498;2022-07-15T00:24:25;102296.38;;;16.12;63.14
72414;BME280;60995;52.154;4.498;2022-07-15T00:26:41;102302.59;;;16.14;63.02
72414;BME280;60995;52.154;4.498;2022-07-15T00:28:58;102300.81;;;16.03;63.29
72414;BME280;60995;52.154;4.498;2022-07-15T00:31:14;102299.34;;;15.99;63.35
72414;BME280;60995;52.154;4.498;2022-07-15T00:33:30;102297.34;;;16.01;63.58
72414;BME280;60995;52.154;4.498;2022-07-15T00:35:47;102294.97;;;15.87;63.89
72414;BME280;60995;52.154;4.498;2022-07-15T00:38:04;102295.25;;;15.84;64.15
72414;BME280;60995;52.154;4.498;2022-07-15T00:40:24;102300.16;;;15.90;63.60
72414;BME280;60995;52.154;4.498;2022-07-15T00:42:42;102296.25;;;15.83;63.84
72414;BME280;60995;52.154;4.498;2022-07-15T00:45:01;102294.97;;;15.87;63.74
72414;BME280;60995;52.154;4.498;2022-07-15T00:47:18;102281.69;;;15.82;63.38
72414;BME280;60995;52.154;4.498;2022-07-15T00:49:34;102286.03;;;15.64;63.94
72414;BME280;60995;52.154;4.498;2022-07-15T00:51:52;102293.50;;;15.62;63.67
72414;BME280;60995;52.154;4.498;2022-07-15T00:54:13;102291.09;;;15.68;63.15
72414;BME280;60995;52.154;4.498;2022-07-15T00:56:30;102293.84;;;15.68;63.08
72414;BME280;60995;52.154;4.498;2022-07-15T00:58:53;102294.56;;;15.70;62.38
72414;BME280;60995;52.154;4.498;2022-07-15T01:01:10;102293.16;;;15.76;62.14
72414;BME280;60995;52.154;4.498;2022-07-15T01:03:27;102291.97;;;15.69;61.93
72414;BME280;60995;52.154;4.498;2022-07-15T01:05:47;102298.41;;;15.58;61.81
72414;BME280;60995;52.154;4.498;2022-07-15T01:08:04;102298.41;;;15.58;61.97
72414;BME280;60995;52.154;4.498;2022-07-15T01:10:22;102297.13;;;15.62;61.65
72414;BME280;60995;52.154;4.498;2022-07-15T01:12:40;102297.94;;;15.53;62.12
72414;BME280;60995;52.154;4.498;2022-07-15T01:14:56;102293.28;;;15.44;62.09
72414;BME280;60995;52.154;4.498;2022-07-15T01:17:15;102296.47;;;15.49;61.84
72414;BME280;60995;52.154;4.498;2022-07-15T01:19:31;102293.50;;;15.62;61.43
72414;BME280;60995;52.154;4.498;2022-07-15T01:21:48;102296.19;;;15.52;61.56
72414;BME280;60995;52.154;4.498;2022-07-15T01:24:04;102298.19;;;15.50;61.56
72414;BME280;60995;52.154;4.498;2022-07-15T01:26:21;102302.94;;;15.48;61.58
72414;BME280;60995;52.154;4.498;2022-07-15T01:28:37;102303.53;;;15.51;61.53
72414;BME280;60995;52.154;4.498;2022-07-15T01:30:53;102306.84;;;15.55;61.51
72414;BME280;60995;52.154;4.498;2022-07-15T01:33:10;102299.44;;;15.46;61.68
72414;BME280;60995;52.154;4.498;2022-07-15T01:35:29;102297.25;;;15.61;61.22
72414;BME280;60995;52.154;4.498;2022-07-15T01:37:46;102302.47;;;15.43;61.62
72414;BME280;60995;52.154;4.498;2022-07-15T01:40:04;102299.00;;;15.41;62.08
72414;BME280;60995;52.154;4.498;2022-07-15T01:42:21;102292.13;;;15.46;61.26
72414;BME280;60995;52.154;4.498;2022-07-15T01:44:38;102298.47;;;15.47;61.25
72414;BME280;60995;52.154;4.498;2022-07-15T01:46:54;102295.53;;;15.38;61.96
72414;BME280;60995;52.154;4.498;2022-07-15T01:49:10;102293.78;;;15.37;61.68
72414;BME280;60995;52.154;4.498;2022-07-15T01:51:41;102293.00;;;15.47;61.48
72414;BME280;60995;52.154;4.498;2022-07-15T01:53:58;102292.56;;;15.30;61.48
72414;BME280;60995;52.154;4.498;2022-07-15T01:56:14;102300.06;;;15.28;61.95
72414;BME280;60995;52.154;4.498;2022-07-15T01:58:30;102299.97;;;15.39;61.48
72414;BME280;60995;52.154;4.498;2022-07-15T02:00:47;102290.59;;;15.32;61.36
72414;BME280;60995;52.154;4.498;2022-07-15T02:03:14;102286.06;;;15.43;61.02
72414;BME280;60995;52.154;4.498;2022-07-15T02:12:06;102288.59;;;15.34;60.92
72414;BME280;60995;52.154;4.498;2022-07-15T02:14:47;102290.53;;;15.44;60.61
72414;BME280;60995;52.154;4.498;2022-07-15T02:23:52;102293.63;;;15.60;59.95
72414;BME280;60995;52.154;4.498;2022-07-15T02:43:38;102284.22;;;14.89;61.78
72414;BME280;60995;52.154;4.498;2022-07-15T02:46:39;102292.34;;;14.80;62.60
72414;BME280;60995;52.154;4.498;2022-07-15T02:49:23;102299.03;;;14.76;62.63
72414;BME280;60995;52.154;4.498;2022-07-15T02:52:23;102304.47;;;14.87;62.22
72414;BME280;60995;52.154;4.498;2022-07-15T02:58:46;102304.03;;;14.70;63.14
72414;BME280;60995;52.154;4.498;2022-07-15T03:04:40;102304.88;;;14.82;62.64
72414;BME280;60995;52.154;4.498;2022-07-15T03:10:54;102317.34;;;14.96;62.43
72414;BME280;60995;52.154;4.498;2022-07-15T03:13:44;102310.56;;;15.12;61.98
72414;BME280;60995;52.154;4.498;2022-07-15T03:16:46;102319.25;;;15.17;61.98
72414;BME280;60995;52.154;4.498;2022-07-15T03:25:50;102329.69;;;14.91;63.36
72414;BME280;60995;52.154;4.498;2022-07-15T03:28:32;102333.50;;;14.99;63.05
72414;BME280;60995;52.154;4.498;2022-07-15T03:31:46;102331.25;;;15.04;62.85
72414;BME280;60995;52.154;4.498;2022-07-15T03:34:21;102329.25;;;15.07;62.76
72414;BME280;60995;52.154;4.498;2022-07-15T03:37:13;102332.72;;;15.09;62.75
72414;BME280;60995;52.154;4.498;2022-07-15T03:40:11;102330.13;;;15.07;62.99
72414;BME280;60995;52.154;4.498;2022-07-15T03:43:04;102330.88;;;15.30;61.87
72414;BME280;60995;52.154;4.498;2022-07-15T03:45:42;102330.34;;;15.36;61.61
72414;BME280;60995;52.154;4.498;2022-07-15T03:57:16;102342.41;;;15.13;63.70
72414;BME280;60995;52.154;4.498;2022-07-15T03:59:46;102354.41;;;15.21;63.35
72414;BME280;60995;52.154;4.498;2022-07-15T04:02:29;102359.34;;;15.28;63.38
72414;BME280;60995;52.154;4.498;2022-07-15T04:05:00;102357.00;;;15.23;64.42
72414;BME280;60995;52.154;4.498;2022-07-15T04:07:47;102348.63;;;15.15;64.56
72414;BME280;60995;52.154;4.498;2022-07-15T04:10:49;102353.81;;;15.18;64.76
72414;BME280;60995;52.154;4.498;2022-07-15T04:16:44;102356.13;;;15.22;64.47
72414;BME280;60995;52.154;4.498;2022-07-15T04:19:19;102357.00;;;15.23;64.62
72414;BME280;60995;52.154;4.498;2022-07-15T04:27:36;102363.91;;;15.38;65.09
72414;BME280;60995;52.154;4.498;2022-07-15T04:30:08;102359.28;;;15.60;64.55
72414;BME280;60995;52.154;4.498;2022-07-15T04:33:23;102371.16;;;15.82;64.00
72414;BME280;60995;52.154;4.498;2022-07-15T04:36:13;102365.78;;;16.01;63.31
72414;BME280;60995;52.154;4.498;2022-07-15T04:39:41;102369.53;;;16.00;63.19
72414;BME280;60995;52.154;4.498;2022-07-15T04:42:22;102359.56;;;15.99;62.87
72414;BME280;60995;52.154;4.498;2022-07-15T04:48:05;102364.50;;;16.06;63.09
72414;BME280;60995;52.154;4.498;2022-07-15T04:50:58;102360.56;;;16.29;62.49
72414;BME280;60995;52.154;4.498;2022-07-15T04:53:50;102364.34;;;16.28;62.53
72414;BME280;60995;52.154;4.498;2022-07-15T05:00:16;102369.94;;;16.77;61.11
72414;BME280;60995;52.154;4.498;2022-07-15T05:03:12;102360.28;;;16.83;61.15
72414;BME280;60995;52.154;4.498;2022-07-15T05:44:15;102332.59;;;34.05;23.30
72414;BME280;60995;52.154;4.498;2022-07-15T05:56:49;102324.63;;;34.19;22.69
72414;BME280;60995;52.154;4.498;2022-07-15T05:59:39;102324.56;;;35.13;21.65
72414;BME280;60995;52.154;4.498;2022-07-15T06:06:25;102321.09;;;34.78;21.48
72414;BME280;60995;52.154;4.498;2022-07-15T06:17:17;102328.09;;;36.05;19.96
72414;BME280;60995;52.154;4.498;2022-07-15T06:24:23;102321.59;;;37.61;18.28
72414;BME280;60995;52.154;4.498;2022-07-15T06:30:28;102317.97;;;34.30;21.52
72414;BME280;60995;52.154;4.498;2022-07-15T06:32:51;102319.44;;;33.37;22.10
72414;BME280;60995;52.154;4.498;2022-07-15T06:35:19;102328.53;;;33.10;22.48
72414;BME280;60995;52.154;4.498;2022-07-15T06:37:44;102330.38;;;31.82;24.13
72414;BME280;60995;52.154;4.498;2022-07-15T06:40:24;102326.53;;;32.36;23.76
72414;BME280;60995;52.154;4.498;2022-07-15T06:42:41;102325.25;;;31.79;24.74
72414;BME280;60995;52.154;4.498;2022-07-15T06:45:21;102325.53;;;29.70;27.20
72414;BME280;60995;52.154;4.498;2022-07-15T06:48:23;102330.38;;;28.53;29.18
72414;BME280;60995;52.154;4.498;2022-07-15T06:50:50;102335.34;;;29.29;28.79
72414;BME280;60995;52.154;4.498;2022-07-15T06:53:09;102344.16;;;31.84;24.72
72414;BME280;60995;52.154;4.498;2022-07-15T06:55:26;102341.88;;;31.15;25.25
72414;BME280;60995;52.154;4.498;2022-07-15T06:57:55;102352.63;;;29.12;28.20
72414;BME280;60995;52.154;4.498;2022-07-15T07:00:20;102344.31;;;26.52;32.16
72414;BME280;60995;52.154;4.498;2022-07-15T07:02:39;102338.16;;;25.87;32.91
72414;BME280;60995;52.154;4.498;2022-07-15T07:05:09;102348.75;;;25.48;34.37
72414;BME280;60995;52.154;4.498;2022-07-15T07:07:36;102352.44;;;25.34;34.71
72414;BME280;60995;52.154;4.498;2022-07-15T07:11:27;102351.56;;;26.47;33.28
72414;BME280;60995;52.154;4.498;2022-07-15T07:14:21;102347.25;;;25.74;35.21
72414;BME280;60995;52.154;4.498;2022-07-15T07:17:04;102345.56;;;26.43;33.59
72414;BME280;60995;52.154;4.498;2022-07-15T07:19:30;102349.22;;;26.99;32.63
72414;BME280;60995;52.154;4.498;2022-07-15T07:21:47;102349.66;;;26.54;33.42
72414;BME280;60995;52.154;4.498;2022-07-15T07:24:04;102352.06;;;26.57;33.69
72414;BME280;60995;52.154;4.498;2022-07-15T07:26:23;102356.31;;;27.35;32.88
72414;BME280;60995;52.154;4.498;2022-07-15T07:28:40;102353.91;;;28.26;30.81
72414;BME280;60995;52.154;4.498;2022-07-15T07:30:57;102357.28;;;28.93;29.63
72414;BME280;60995;52.154;4.498;2022-07-15T07:33:13;102351.47;;;29.33;29.04
72414;BME280;60995;52.154;4.498;2022-07-15T07:35:33;102345.72;;;29.72;28.33
72414;BME280;60995;52.154;4.498;2022-07-15T07:37:53;102345.28;;;30.56;27.15
72414;BME280;60995;52.154;4.498;2022-07-15T07:40:10;102355.44;;;28.80;29.35
72414;BME280;60995;52.154;4.498;2022-07-15T07:42:33;102344.84;;;29.21;28.88
72414;BME280;60995;52.154;4.498;2022-07-15T07:44:54;102348.44;;;29.79;27.82
72414;BME280;60995;52.154;4.498;2022-07-15T07:47:12;102351.84;;;32.94;23.68
72414;BME280;60995;52.154;4.498;2022-07-15T07:49:29;102348.09;;;34.96;20.72
72414;BME280;60995;52.154;4.498;2022-07-15T07:51:45;102354.44;;;37.21;18.22
72414;BME280;60995;52.154;4.498;2022-07-15T07:54:01;102345.00;;;36.74;18.32
72414;BME280;60995;52.154;4.498;2022-07-15T07:56:21;102349.94;;;37.25;18.05
72414;BME280;60995;52.154;4.498;2022-07-15T07:58:38;102352.06;;;38.31;17.11
72414;BME280;60995;52.154;4.498;2022-07-15T08:00:55;102340.34;;;38.98;16.24
72414;BME280;60995;52.154;4.498;2022-07-15T08:03:14;102338.28;;;39.09;16.30
72414;BME280;60995;52.154;4.498;2022-07-15T08:05:44;102340.03;;;39.93;16.34
72414;BME280;60995;52.154;4.498;2022-07-15T08:08:21;102333.47;;;37.94;16.84
72414;BME280;60995;52.154;4.498;2022-07-15T08:10:43;102340.75;;;38.26;17.39
72414;BME280;60995;52.154;4.498;2022-07-15T08:13:03;102328.53;;;38.81;16.53
72414;BME280;60995;52.154;4.498;2022-07-15T08:15:20;102330.84;;;38.79;17.11
72414;BME280;60995;52.154;4.498;2022-07-15T08:17:37;102337.38;;;39.48;15.71
72414;BME280;60995;52.154;4.498;2022-07-15T08:19:54;102334.59;;;37.93;16.85
72414;BME280;60995;52.154;4.498;2022-07-15T08:22:11;102339.19;;;36.96;17.54
72414;BME280;60995;52.154;4.498;2022-07-15T08:24:33;102333.91;;;35.18;19.30
72414;BME280;60995;52.154;4.498;2022-07-15T08:26:50;102342.50;;;33.05;21.59
72414;BME280;60995;52.154;4.498;2022-07-15T08:29:06;102334.56;;;31.26;24.09
72414;BME280;60995;52.154;4.498;2022-07-15T08:31:22;102339.41;;;34.31;21.13
72414;BME280;60995;52.154;4.498;2022-07-15T08:33:42;102344.88;;;33.13;21.66
72414;BME280;60995;52.154;4.498;2022-07-15T08:35:58;102352.59;;;33.69;21.08
72414;BME280;60995;52.154;4.498;2022-07-15T08:38:15;102338.75;;;32.30;22.95
72414;BME280;60995;52.154;4.498;2022-07-15T08:40:31;102348.19;;;31.76;23.63
72414;BME280;60995;52.154;4.498;2022-07-15T08:42:47;102344.78;;;30.41;25.70
72414;BME280;60995;52.154;4.498;2022-07-15T08:45:06;102345.63;;;30.60;25.92
72414;BME280;60995;52.154;4.498;2022-07-15T08:47:23;102350.59;;;32.08;23.94
72414;BME280;60995;52.154;4.498;2022-07-15T08:49:40;102352.06;;;31.99;23.80
72414;BME280;60995;52.154;4.498;2022-07-15T08:51:59;102351.69;;;31.60;23.35
72414;BME280;60995;52.154;4.498;2022-07-15T08:54:17;102360.88;;;30.08;25.02
72414;BME280;60995;52.154;4.498;2022-07-15T08:56:34;102353.25;;;31.32;23.45
72414;BME280;60995;52.154;4.498;2022-07-15T08:58:51;102349.09;;;32.41;21.76
72414;BME280;60995;52.154;4.498;2022-07-15T09:01:08;102344.56;;;33.95;20.46
72414;BME280;60995;52.154;4.498;2022-07-15T09:03:24;102339.13;;;36.12;18.59
72414;BME280;60995;52.154;4.498;2022-07-15T09:05:41;102335.13;;;35.60;18.75
72414;BME280;60995;52.154;4.498;2022-07-15T09:08:09;102336.66;;;37.36;17.38
72414;BME280;60995;52.154;4.498;2022-07-15T09:10:51;102338.63;;;37.30;16.68
72414;BME280;60995;52.154;4.498;2022-07-15T09:13:38;102343.47;;;33.62;20.43
72414;BME280;60995;52.154;4.498;2022-07-15T09:15:59;102333.38;;;34.44;20.17
72414;BME280;60995;52.154;4.498;2022-07-15T09:18:40;102333.50;;;37.17;17.68
72414;BME280;60995;52.154;4.498;2022-07-15T09:20:57;102331.22;;;37.65;17.53
72414;BME280;60995;52.154;4.498;2022-07-15T09:23:16;102332.94;;;37.82;17.26
72414;BME280;60995;52.154;4.498;2022-07-15T09:25:38;102330.06;;;36.79;18.06
72414;BME280;60995;52.154;4.498;2022-07-15T09:27:57;102329.28;;;37.45;17.36
72414;BME280;60995;52.154;4.498;2022-07-15T09:30:24;102325.50;;;35.99;18.87
72414;BME280;60995;52.154;4.498;2022-07-15T09:33:03;102332.88;;;36.73;18.82
72414;BME280;60995;52.154;4.498;2022-07-15T09:35:40;102323.88;;;37.07;18.42
72414;BME280;60995;52.154;4.498;2022-07-15T09:38:25;102329.00;;;37.16;17.64
72414;BME280;60995;52.154;4.498;2022-07-15T09:40:48;102329.53;;;36.87;18.18
72414;BME280;60995;52.154;4.498;2022-07-15T09:43:07;102321.06;;;37.13;17.63
72414;BME280;60995;52.154;4.498;2022-07-15T09:45:23;102316.78;;;34.70;19.80
72414;BME280;60995;52.154;4.498;2022-07-15T09:47:40;102323.75;;;35.50;19.37
72414;BME280;60995;52.154;4.498;2022-07-15T09:49:58;102325.78;;;35.22;20.15
72414;BME280;60995;52.154;4.498;2022-07-15T09:52:14;102317.06;;;36.83;17.92
72414;BME280;60995;52.154;4.498;2022-07-15T09:54:47;102315.03;;;34.86;19.40
72414;BME280;60995;52.154;4.498;2022-07-15T09:57:07;102319.41;;;35.37;19.29
72414;BME280;60995;52.154;4.498;2022-07-15T09:59:26;102322.50;;;32.73;21.47
72414;BME280;60995;52.154;4.498;2022-07-15T10:01:43;102327.78;;;34.05;20.31
72414;BME280;60995;52.154;4.498;2022-07-15T10:04:04;102321.41;;;34.82;19.81
72414;BME280;60995;52.154;4.498;2022-07-15T10:06:20;102314.53;;;34.45;20.81
72414;BME280;60995;52.154;4.498;2022-07-15T10:08:46;102316.44;;;33.44;22.15
72414;BME280;60995;52.154;4.498;2022-07-15T10:11:08;102314.13;;;34.14;21.14
72414;BME280;60995;52.154;4.498;2022-07-15T10:25:08;102299.81;;;34.65;19.67
72414;BME280;60995;52.154;4.498;2022-07-15T10:28:17;102306.31;;;33.26;20.79
72414;BME280;60995;52.154;4.498;2022-07-15T10:30:46;102294.28;;;33.47;20.15
72414;BME280;60995;52.154;4.498;2022-07-15T10:33:31;102290.94;;;35.38;18.16
72414;BME280;60995;52.154;4.498;2022-07-15T10:35:53;102301.41;;;33.72;20.03
72414;BME280;60995;52.154;4.498;2022-07-15T10:38:34;102284.19;;;35.44;17.55
72414;BME280;60995;52.154;4.498;2022-07-15T10:41:07;102288.47;;;36.69;17.35
72414;BME280;60995;52.154;4.498;2022-07-15T10:48:35;102297.28;;;35.23;18.23
72414;BME280;60995;52.154;4.498;2022-07-15T10:50:51;102290.63;;;34.48;18.64
72414;BME280;60995;52.154;4.498;2022-07-15T10:53:16;102289.97;;;34.40;19.28
72414;BME280;60995;52.154;4.498;2022-07-15T10:55:40;102293.25;;;33.20;20.53
72414;BME280;60995;52.154;4.498;2022-07-15T10:57:57;102301.69;;;33.54;20.42
72414;BME280;60995;52.154;4.498;2022-07-15T11:00:35;102304.41;;;33.14;21.11
72414;BME280;60995;52.154;4.498;2022-07-15T11:03:12;102289.38;;;33.94;20.22
72414;BME280;60995;52.154;4.498;2022-07-15T11:05:34;102300.72;;;33.14;20.86
72414;BME280;60995;52.154;4.498;2022-07-15T11:10:56;102297.13;;;33.87;20.36
72414;BME280;60995;52.154;4.498;2022-07-15T11:13:14;102301.50;;;32.11;22.30
72414;BME280;60995;52.154;4.498;2022-07-15T11:15:57;102292.53;;;32.78;22.00
72414;BME280;60995;52.154;4.498;2022-07-15T11:18:15;102299.97;;;31.56;23.41
72414;BME280;60995;52.154;4.498;2022-07-15T11:20:34;102282.03;;;31.21;23.30
72414;BME280;60995;52.154;4.498;2022-07-15T11:22:57;102295.56;;;31.60;22.91
72414;BME280;60995;52.154;4.498;2022-07-15T11:25:32;102292.94;;;30.99;24.39
72414;BME280;60995;52.154;4.498;2022-07-15T11:28:11;102293.28;;;31.02;23.89
72414;BME280;60995;52.154;4.498;2022-07-15T11:33:14;102291.41;;;30.05;24.92
72414;BME280;60995;52.154;4.498;2022-07-15T11:35:49;102292.00;;;31.29;23.37
72414;BME280;60995;52.154;4.498;2022-07-15T11:38:51;102273.47;;;30.74;24.37
72414;BME280;60995;52.154;4.498;2022-07-15T11:41:20;102280.91;;;31.46;23.46
72414;BME280;60995;52.154;4.498;2022-07-15T11:44:09;102271.56;;;30.86;24.47
72414;BME280;60995;52.154;4.498;2022-07-15T11:47:15;102278.38;;;31.44;24.10
72414;BME280;60995;52.154;4.498;2022-07-15T11:49:43;102271.84;;;30.96;24.65
72414;BME280;60995;52.154;4.498;2022-07-15T11:55:04;102272.44;;;28.87;27.53
72414;BME280;60995;52.154;4.498;2022-07-15T11:57:36;102270.69;;;29.44;26.84
72414;BME280;60995;52.154;4.498;2022-07-15T12:00:32;102270.31;;;28.83;27.42
72414;BME280;60995;52.154;4.498;2022-07-15T12:03:18;102274.22;;;29.07;27.58
72414;BME280;60995;52.154;4.498;2022-07-15T12:08:52;102270.50;;;29.64;27.25
72414;BME280;60995;52.154;4.498;2022-07-15T12:11:45;102262.19;;;29.32;27.40
72414;BME280;60995;52.154;4.498;2022-07-15T12:14:22;102278.81;;;29.52;27.70
72414;BME280;60995;52.154;4.498;2022-07-15T12:19:46;102278.91;;;27.10;32.10
72414;BME280;60995;52.154;4.498;2022-07-15T12:22:09;102266.75;;;28.23;30.75
72414;BME280;60995;52.154;4.498;2022-07-15T12:24:38;102278.94;;;27.57;32.00
72414;BME280;60995;52.154;4.498;2022-07-15T12:27:30;102273.78;;;29.10;29.69
72414;BME280;60995;52.154;4.498;2022-07-15T12:30:11;102269.03;;;27.81;32.27
72414;BME280;60995;52.154;4.498;2022-07-15T12:32:31;102268.44;;;28.31;31.79
72414;BME280;60995;52.154;4.498;2022-07-15T12:37:22;102272.09;;;28.25;31.98
72414;BME280;60995;52.154;4.498;2022-07-15T12:42:29;102275.47;;;27.75;33.22
72414;BME280;60995;52.154;4.498;2022-07-15T12:45:13;102275.91;;;26.78;34.55
72414;BME280;60995;52.154;4.498;2022-07-15T12:47:32;102280.53;;;26.71;35.29
72414;BME280;60995;52.154;4.498;2022-07-15T12:49:59;102284.94;;;27.20;34.66
72414;BME280;60995;52.154;4.498;2022-07-15T12:54:49;102283.91;;;26.53;35.98
72414;BME280;60995;52.154;4.498;2022-07-15T12:57:44;102280.38;;;26.17;37.59
72414;BME280;60995;52.154;4.498;2022-07-15T13:00:23;102282.03;;;26.60;36.92
72414;BME280;60995;52.154;4.498;2022-07-15T13:05:46;102283.63;;;25.57;37.89
72414;BME280;60995;52.154;4.498;2022-07-15T13:08:10;102280.38;;;26.17;37.51
72414;BME280;60995;52.154;4.498;2022-07-15T13:10:31;102273.94;;;26.10;37.25
72414;BME280;60995;52.154;4.498;2022-07-15T13:12:47;102271.28;;;26.02;38.00
72414;BME280;60995;52.154;4.498;2022-07-15T13:15:04;102277.00;;;26.29;37.32
72414;BME280;60995;52.154;4.498;2022-07-15T13:17:21;102280.13;;;26.12;37.31
72414;BME280;60995;52.154;4.498;2022-07-15T13:19:37;102266.47;;;25.82;37.66
72414;BME280;60995;52.154;4.498;2022-07-15T13:21:56;102277.53;;;26.04;37.21
72414;BME280;60995;52.154;4.498;2022-07-15T13:24:15;102266.31;;;25.55;37.96
72414;BME280;60995;52.154;4.498;2022-07-15T13:26:31;102275.19;;;25.44;38.57
72414;BME280;60995;52.154;4.498;2022-07-15T13:28:48;102274.31;;;25.15;39.27
72414;BME280;60995;52.154;4.498;2022-07-15T13:31:04;102269.00;;;25.77;38.47
72414;BME280;60995;52.154;4.498;2022-07-15T13:33:22;102268.38;;;25.75;38.32
72414;BME280;60995;52.154;4.498;2022-07-15T13:35:48;102268.09;;;26.47;37.54
72414;BME280;60995;52.154;4.498;2022-07-15T13:38:10;102266.28;;;26.94;36.69
72414;BME280;60995;52.154;4.498;2022-07-15T13:40:26;102273.09;;;26.16;38.47
72414;BME280;60995;52.154;4.498;2022-07-15T13:42:42;102269.66;;;25.79;38.60
72414;BME280;60995;52.154;4.498;2022-07-15T13:45:00;102261.84;;;26.38;37.79
72414;BME280;60995;52.154;4.498;2022-07-15T13:47:24;102271.44;;;26.29;38.41
72414;BME280;60995;52.154;4.498;2022-07-15T13:49:42;102270.31;;;26.78;38.80
72414;BME280;60995;52.154;4.498;2022-07-15T13:52:20;102262.75;;;26.58;36.88
72414;BME280;60995;52.154;4.498;2022-07-15T13:54:40;102263.31;;;26.27;38.54
72414;BME280;60995;52.154;4.498;2022-07-15T13:56:56;102266.94;;;25.92;38.92
72414;BME280;60995;52.154;4.498;2022-07-15T13:59:12;102251.78;;;26.44;38.22
72414;BME280;60995;52.154;4.498;2022-07-15T14:01:35;102261.97;;;26.78;37.61
72414;BME280;60995;52.154;4.498;2022-07-15T14:03:58;102252.97;;;26.07;38.82
72414;BME280;60995;52.154;4.498;2022-07-15T14:06:15;102251.19;;;25.65;40.35
72414;BME280;60995;52.154;4.498;2022-07-15T14:08:38;102255.75;;;25.79;40.67
72414;BME280;60995;52.154;4.498;2022-07-15T14:11:04;102249.25;;;25.08;42.44
72414;BME280;60995;52.154;4.498;2022-07-15T14:13:27;102246.16;;;24.38;44.36
72414;BME280;60995;52.154;4.498;2022-07-15T14:15:43;102244.22;;;24.39;45.13
72414;BME280;60995;52.154;4.498;2022-07-15T14:18:00;102238.34;;;24.64;45.51
72414;BME280;60995;52.154;4.498;2022-07-15T14:20:19;102231.50;;;24.81;45.45
72414;BME280;60995;52.154;4.498;2022-07-15T14:22:36;102243.22;;;25.05;45.07
72414;BME280;60995;52.154;4.498;2022-07-15T14:24:53;102239.34;;;25.27;44.41
72414;BME280;60995;52.154;4.498;2022-07-15T14:27:09;102245.22;;;25.39;42.70
72414;BME280;60995;52.154;4.498;2022-07-15T14:29:25;102244.09;;;25.55;42.54
72414;BME280;60995;52.154;4.498;2022-07-15T14:31:42;102243.56;;;24.95;43.52
72414;BME280;60995;52.154;4.498;2022-07-15T14:33:58;102242.19;;;24.84;42.81
72414;BME280;60995;52.154;4.498;2022-07-15T14:36:15;102244.50;;;25.02;42.68
72414;BME280;60995;52.154;4.498;2022-07-15T14:38:31;102237.75;;;24.32;43.31
72414;BME280;60995;52.154;4.498;2022-07-15T14:40:48;102242.41;;;23.94;44.45
72414;BME280;60995;52.154;4.498;2022-07-15T14:43:04;102242.09;;;23.89;45.18
72414;BME280;60995;52.154;4.498;2022-07-15T14:45:20;102249.47;;;23.82;45.09
72414;BME280;60995;52.154;4.498;2022-07-15T14:47:37;102244.28;;;23.79;44.96
72414;BME280;60995;52.154;4.498;2022-07-15T14:49:55;102244.28;;;23.79;44.16
72414;BME280;60995;52.154;4.498;2022-07-15T14:52:11;102237.25;;;23.91;42.50
72414;BME280;60995;52.154;4.498;2022-07-15T14:54:28;102234.53;;;24.13;43.63
72414;BME280;60995;52.154;4.498;2022-07-15T14:56:44;102242.34;;;24.24;42.59
72414;BME280;60995;52.154;4.498;2022-07-15T14:59:00;102237.41;;;24.05;44.39
72414;BME280;60995;52.154;4.498;2022-07-15T15:01:17;102230.72;;;24.14;44.14
72414;BME280;60995;52.154;4.498;2022-07-15T15:03:33;102244.41;;;23.86;44.22
72414;BME280;60995;52.154;4.498;2022-07-15T15:05:50;102242.19;;;23.13;46.71
72414;BME280;60995;52.154;4.498;2022-07-15T15:08:06;102243.59;;;23.32;46.38
72414;BME280;60995;52.154;4.498;2022-07-15T15:10:22;102238.53;;;23.36;47.16
72414;BME280;60995;52.154;4.498;2022-07-15T15:12:39;102241.00;;;23.07;48.14
72414;BME280;60995;52.154;4.498;2022-07-15T15:14:56;102244.72;;;23.00;48.15
72414;BME280;60995;52.154;4.498;2022-07-15T15:17:12;102231.94;;;22.99;49.09
72414;BME280;60995;52.154;4.498;2022-07-15T15:19:31;102240.88;;;22.62;47.84
72414;BME280;60995;52.154;4.498;2022-07-15T15:21:51;102235.56;;;22.76;48.20
72414;BME280;60995;52.154;4.498;2022-07-15T15:24:07;102239.06;;;22.46;48.52
72414;BME280;60995;52.154;4.498;2022-07-15T15:26:24;102236.63;;;22.52;49.23
72414;BME280;60995;52.154;4.498;2022-07-15T15:28:43;102234.75;;;22.90;47.13
72414;BME280;60995;52.154;4.498;2022-07-15T15:30:59;102242.75;;;22.85;45.68
72414;BME280;60995;52.154;4.498;2022-07-15T15:33:16;102235.09;;;22.72;46.69
72414;BME280;60995;52.154;4.498;2022-07-15T15:35:32;102236.75;;;22.58;48.22
72414;BME280;60995;52.154;4.498;2022-07-15T15:37:56;102231.47;;;22.72;49.43
72414;BME280;60995;52.154;4.498;2022-07-15T15:40:13;102232.25;;;22.80;47.83
72414;BME280;60995;52.154;4.498;2022-07-15T15:42:29;102227.75;;;22.79;45.96
72414;BME280;60995;52.154;4.498;2022-07-15T15:44:46;102222.91;;;22.58;46.73
72414;BME280;60995;52.154;4.498;2022-07-15T15:47:02;102224.78;;;22.35;46.76